aviador You're here:

YTNK Decoded Metar

TENNANT CREEK in _UNIDENTIFIED
Report Time2018-02-17 23:00:00
UTC Time2018-02-17 23:42:50
Flight Rules vfr VFR
Wind270° at 13 kt
W.Decomp.*RWY 25: 12.5 kt HW 3.6 kt RCW
RWY 29: 11.9 kt HW 5.3 kt LCW
W.Rank270° ranks 25
Current wind is above 270° avg. (5.9)
Visibility9999 m
Phenomena:N/A
Clouds:N/A
Expected CloudBase > 3,200 ft AGL from Temp-Dew spread
CeilingNone
Temp30°C (ISA +17)
Dew Point22°C (62% RH)
Heat Index33.2°C
QNH1011 hPa
Density Alt3,655 ft
Elevation1,237 ft
Report Wrong Elevation
Raw Report
YTNK 172300Z AUTO 27013KT 9999 // NCD 30/22 Q1011=

Extra information for YTNK:More info

Metar Taf Metar & Taf Last 4 Metars F.Rules Stats Wind Profile Meteogram Temp Stats Airport Information Weather charts Add Link Nearby VenuesMetar ALERT Operation Metar Decoded Social comments